Time;durP1;ratioP1;P1;durP2;ratioP2;P2;SDS_P1;SDS_P2;PMS_P1;PMS_P2;Temp;Humidity;BMP_temperature;BMP_pressure;BME280_temperature;BME280_humidity;BME280_pressure;Samples;Min_cycle;Max_cycle;Signal;HPM_P1;HPM_P2
2022/07/02 00:01:06;;;;;;;9.95;1.27;;;;;;;;;;6276999;22;20465;-71
2022/07/02 00:03:32;;;;;;;4.00;1.33;;;;;;;;;;6277466;22;20008;-71
2022/07/02 00:05:58;;;;;;;4.55;1.20;;;;;;;;;;6277341;22;20031;-71
2022/07/02 00:08:25;;;;;;;9.98;1.10;;;;;;;;;;6276807;22;20415;-71
2022/07/02 00:10:51;;;;;;;8.38;1.30;;;;;;;;;;6277157;22;20011;-70
2022/07/02 00:13:16;;;;;;;7.43;1.23;;;;;;;;;;6277325;22;20011;-70
2022/07/02 00:15:42;;;;;;;7.70;1.48;;;;;;;;;;6277000;22;20000;-70
2022/07/02 00:18:07;;;;;;;3.55;1.38;;;;;;;;;;6277320;22;20451;-70
2022/07/02 00:20:32;;;;;;;3.85;1.00;;;;;;;;;;6276925;22;20448;-71
2022/07/02 00:22:58;;;;;;;5.63;1.10;;;;;;;;;;6277035;22;20392;-70
2022/07/02 00:25:23;;;;;;;8.00;1.20;;;;;;;;;;6277070;22;20073;-70
2022/07/02 00:27:49;;;;;;;3.63;1.20;;;;;;;;;;6276706;22;20011;-70
2022/07/02 00:30:14;;;;;;;4.88;1.42;;;;;;;;;;6277219;22;20404;-70
2022/07/02 00:32:41;;;;;;;4.00;1.23;;;;;;;;;;6277049;22;20117;-71
2022/07/02 00:35:11;;;;;;;5.93;1.33;;;;;;;;;;6277132;22;20011;-70
2022/07/02 00:37:37;;;;;;;3.60;1.27;;;;;;;;;;6276927;22;19988;-71
2022/07/02 00:40:03;;;;;;;5.57;1.20;;;;;;;;;;6276880;22;20018;-70
2022/07/02 00:42:29;;;;;;;7.75;1.70;;;;;;;;;;6277062;22;20007;-70
2022/07/02 00:44:55;;;;;;;4.90;1.10;;;;;;;;;;6276471;22;20374;-70
2022/07/02 00:47:23;;;;;;;6.75;1.30;;;;;;;;;;6276909;22;19999;-70
2022/07/02 00:49:48;;;;;;;6.63;1.38;;;;;;;;;;6276888;22;20408;-70
2022/07/02 00:52:13;;;;;;;6.03;1.30;;;;;;;;;;6276798;22;20002;-70
2022/07/02 00:54:39;;;;;;;5.15;1.45;;;;;;;;;;6276860;22;20086;-71
2022/07/02 00:57:04;;;;;;;3.90;1.48;;;;;;;;;;6277169;22;20411;-70
2022/07/02 00:59:30;;;;;;;5.30;1.65;;;;;;;;;;6276880;22;19995;-70
2022/07/02 01:01:55;;;;;;;4.65;1.10;;;;;;;;;;6277163;22;20058;-70
2022/07/02 01:04:20;;;;;;;9.18;1.58;;;;;;;;;;6277059;22;20324;-71
2022/07/02 01:06:48;;;;;;;5.00;1.00;;;;;;;;;;6276591;22;19996;-71
2022/07/02 01:11:58;;;;;;;5.43;1.30;;;;;;;;;;6275925;22;20018;-71
2022/07/02 01:14:24;;;;;;;6.65;1.25;;;;;;;;;;6276738;22;20098;-71
2022/07/02 01:16:49;;;;;;;8.43;1.73;;;;;;;;;;6276830;22;20337;-71
2022/07/02 01:19:17;;;;;;;5.00;1.40;;;;;;;;;;6276248;22;20003;-70
2022/07/02 01:22:01;;;;;;;2.10;0.93;;;;;;;;;;6276586;22;20102;-70
2022/07/02 01:24:26;;;;;;;4.93;1.23;;;;;;;;;;6276542;22;20008;-70
2022/07/02 01:26:51;;;;;;;9.48;1.58;;;;;;;;;;6276307;22;20371;-70
2022/07/02 01:29:16;;;;;;;5.63;1.20;;;;;;;;;;6276711;22;20004;-71
2022/07/02 01:31:42;;;;;;;6.43;1.70;;;;;;;;;;6276492;22;19995;-71
2022/07/02 01:34:07;;;;;;;3.90;1.30;;;;;;;;;;6276742;22;20408;-70
2022/07/02 01:36:32;;;;;;;8.20;1.25;;;;;;;;;;6276759;22;20359;-71
2022/07/02 01:38:57;;;;;;;4.88;1.20;;;;;;;;;;6276649;22;20022;-70
2022/07/02 01:41:40;;;;;;;5.97;1.30;;;;;;;;;;6276736;22;20016;-70
2022/07/02 01:44:06;;;;;;;6.40;1.23;;;;;;;;;;6276723;22;20053;-70
2022/07/02 01:46:31;;;;;;;4.80;1.27;;;;;;;;;;6276589;22;20003;-71
2022/07/02 01:48:57;;;;;;;10.15;1.42;;;;;;;;;;6276634;22;20350;-70
2022/07/02 01:51:22;;;;;;;5.55;1.33;;;;;;;;;;6276022;22;20114;-70
2022/07/02 01:53:47;;;;;;;5.95;1.23;;;;;;;;;;6276526;22;20011;-70
2022/07/02 01:56:12;;;;;;;6.63;1.58;;;;;;;;;;6276542;22;20011;-71
2022/07/02 01:58:38;;;;;;;5.72;1.30;;;;;;;;;;6276475;22;20074;-70
2022/07/02 02:01:03;;;;;;;6.05;1.30;;;;;;;;;;6276447;22;20054;-70
2022/07/02 02:03:28;;;;;;;6.03;1.75;;;;;;;;;;6276631;22;20325;-71
2022/07/02 02:05:53;;;;;;;4.20;1.58;;;;;;;;;;6276411;22;20071;-70
2022/07/02 02:08:19;;;;;;;7.55;1.40;;;;;;;;;;6276994;22;20007;-70
2022/07/02 02:10:44;;;;;;;5.10;1.50;;;;;;;;;;6276725;22;20108;-71
2022/07/02 02:13:09;;;;;;;8.50;2.40;;;;;;;;;;6276539;22;20410;-71
2022/07/02 02:15:34;;;;;;;3.53;1.35;;;;;;;;;;6276410;22;20077;-70
2022/07/02 02:17:59;;;;;;;8.38;2.00;;;;;;;;;;6276392;22;20007;-71
2022/07/02 02:20:25;;;;;;;5.78;1.52;;;;;;;;;;6276512;22;20014;-70
2022/07/02 02:22:50;;;;;;;4.25;1.45;;;;;;;;;;6276191;22;20000;-71
2022/07/02 02:25:15;;;;;;;7.20;1.50;;;;;;;;;;6278275;22;20004;-71
2022/07/02 02:27:40;;;;;;;5.97;1.55;;;;;;;;;;6278393;22;20052;-71
2022/07/02 02:30:06;;;;;;;6.18;1.88;;;;;;;;;;6278258;22;19996;-71
2022/07/02 02:32:31;;;;;;;5.00;1.48;;;;;;;;;;6278232;22;20039;-70
2022/07/02 02:34:56;;;;;;;6.28;1.50;;;;;;;;;;6278153;22;20396;-70
2022/07/02 02:37:22;;;;;;;6.53;1.65;;;;;;;;;;6278204;22;20364;-70
2022/07/02 02:39:47;;;;;;;6.32;1.70;;;;;;;;;;6277893;22;20016;-70
2022/07/02 02:42:12;;;;;;;9.82;1.80;;;;;;;;;;6277825;22;20074;-70
2022/07/02 02:44:37;;;;;;;8.95;2.08;;;;;;;;;;6278051;22;20027;-70
2022/07/02 02:47:03;;;;;;;4.95;1.17;;;;;;;;;;6278133;22;20008;-70
2022/07/02 02:49:28;;;;;;;5.22;1.10;;;;;;;;;;6278042;22;19992;-70
2022/07/02 02:51:53;;;;;;;4.50;1.25;;;;;;;;;;6277922;22;19999;-70
2022/07/02 02:54:18;;;;;;;7.00;1.40;;;;;;;;;;6278075;22;20000;-70
2022/07/02 02:56:43;;;;;;;5.05;1.15;;;;;;;;;;6277529;22;20071;-70
2022/07/02 02:59:09;;;;;;;3.72;1.33;;;;;;;;;;6278004;22;20000;-70
2022/07/02 03:01:34;;;;;;;10.30;1.20;;;;;;;;;;6277851;22;20015;-70
2022/07/02 03:03:59;;;;;;;7.35;1.30;;;;;;;;;;6277955;22;20059;-70
2022/07/02 03:06:24;;;;;;;4.82;1.25;;;;;;;;;;6277845;22;20000;-70
2022/07/02 03:08:50;;;;;;;3.47;0.98;;;;;;;;;;6277845;22;20004;-70
2022/07/02 03:11:15;;;;;;;6.82;1.30;;;;;;;;;;6277411;22;19996;-70
2022/07/02 03:13:40;;;;;;;3.92;0.90;;;;;;;;;;6277295;22;20007;-70
2022/07/02 03:16:07;;;;;;;5.88;1.00;;;;;;;;;;6277773;22;20007;-70
2022/07/02 03:18:32;;;;;;;4.07;1.00;;;;;;;;;;6277900;22;20000;-70
2022/07/02 03:20:57;;;;;;;9.82;1.33;;;;;;;;;;6277590;22;20034;-70
2022/07/02 03:23:23;;;;;;;3.55;1.13;;;;;;;;;;6277732;22;20419;-70
2022/07/02 03:25:48;;;;;;;11.23;1.58;;;;;;;;;;6277627;22;19999;-70
2022/07/02 03:28:13;;;;;;;8.07;0.90;;;;;;;;;;6277424;22;20053;-70
2022/07/02 03:30:39;;;;;;;4.75;1.27;;;;;;;;;;6277107;22;20004;-70
2022/07/02 03:33:04;;;;;;;2.67;0.88;;;;;;;;;;6277260;22;19998;-70
2022/07/02 03:35:29;;;;;;;5.80;1.10;;;;;;;;;;6277197;22;20304;-70
2022/07/02 03:37:54;;;;;;;5.20;0.90;;;;;;;;;;6277530;22;20053;-70
2022/07/02 03:40:20;;;;;;;4.43;1.30;;;;;;;;;;6245158;23;20337;-70
2022/07/02 03:42:45;;;;;;;7.90;1.73;;;;;;;;;;6246778;22;20409;-70
2022/07/02 03:45:10;;;;;;;7.85;1.17;;;;;;;;;;6246687;23;20428;-70
2022/07/02 03:47:35;;;;;;;5.05;1.17;;;;;;;;;;6247307;23;19999;-70
2022/07/02 03:50:01;;;;;;;4.60;1.30;;;;;;;;;;6246772;23;20368;-70
2022/07/02 03:52:26;;;;;;;4.25;1.00;;;;;;;;;;6246676;23;20306;-70
2022/07/02 03:54:51;;;;;;;5.35;1.30;;;;;;;;;;6247138;23;20003;-70
2022/07/02 03:57:16;;;;;;;5.68;1.15;;;;;;;;;;6246730;23;20421;-70
2022/07/02 03:59:42;;;;;;;7.30;1.08;;;;;;;;;;6246086;23;20008;-70
2022/07/02 04:02:07;;;;;;;3.60;1.40;;;;;;;;;;6246745;23;19997;-71
2022/07/02 04:04:32;;;;;;;3.92;1.25;;;;;;;;;;6246616;23;20316;-70
2022/07/02 04:06:57;;;;;;;6.20;1.55;;;;;;;;;;6246718;23;20812;-70
2022/07/02 04:09:23;;;;;;;7.82;1.45;;;;;;;;;;6246595;23;20067;-70
2022/07/02 04:11:48;;;;;;;7.53;1.38;;;;;;;;;;6246579;23;20004;-70
2022/07/02 04:14:13;;;;;;;8.30;1.02;;;;;;;;;;6246867;23;20004;-70
2022/07/02 04:16:38;;;;;;;3.72;1.05;;;;;;;;;;6246393;23;20007;-70
2022/07/02 04:19:03;;;;;;;8.02;1.05;;;;;;;;;;6246860;23;20066;-70
2022/07/02 04:21:29;;;;;;;9.57;1.58;;;;;;;;;;6246383;23;20016;-70
2022/07/02 04:23:54;;;;;;;4.28;1.30;;;;;;;;;;6246414;23;20312;-70
2022/07/02 04:26:19;;;;;;;3.75;1.10;;;;;;;;;;6246606;23;20027;-70
2022/07/02 04:28:44;;;;;;;6.43;1.05;;;;;;;;;;6246243;23;20007;-70
2022/07/02 04:31:10;;;;;;;5.05;1.40;;;;;;;;;;6246375;23;20022;-70
2022/07/02 04:33:35;;;;;;;5.78;1.10;;;;;;;;;;6246117;23;20000;-70
2022/07/02 04:36:00;;;;;;;5.55;1.13;;;;;;;;;;6246365;23;20000;-70
2022/07/02 04:38:25;;;;;;;6.00;0.95;;;;;;;;;;6246430;23;19996;-69
2022/07/02 04:40:51;;;;;;;5.25;0.90;;;;;;;;;;6266657;22;20046;-70
2022/07/02 04:43:16;;;;;;;2.75;1.17;;;;;;;;;;6277276;22;20004;-70
2022/07/02 04:45:41;;;;;;;2.60;0.88;;;;;;;;;;6276848;22;20004;-71
2022/07/02 04:48:07;;;;;;;2.58;1.00;;;;;;;;;;6277243;22;20068;-70
2022/07/02 04:50:32;;;;;;;6.72;1.27;;;;;;;;;;6276893;22;20434;-70
2022/07/02 04:52:58;;;;;;;4.32;1.00;;;;;;;;;;6276821;22;20027;-70
2022/07/02 04:55:23;;;;;;;6.50;1.05;;;;;;;;;;6276981;22;20006;-70
2022/07/02 04:57:48;;;;;;;4.57;1.20;;;;;;;;;;6276378;22;20008;-71
2022/07/02 05:00:13;;;;;;;6.85;1.08;;;;;;;;;;6276741;22;20004;-70
2022/07/02 05:02:39;;;;;;;7.75;1.42;;;;;;;;;;6276826;22;20007;-70
2022/07/02 05:05:04;;;;;;;2.53;0.82;;;;;;;;;;6276779;22;19999;-70
2022/07/02 05:07:30;;;;;;;3.85;1.00;;;;;;;;;;6276652;22;20003;-71
2022/07/02 05:09:57;;;;;;;4.50;1.15;;;;;;;;;;6276799;22;20003;-70
2022/07/02 05:12:23;;;;;;;6.10;1.17;;;;;;;;;;6276777;22;20082;-71
2022/07/02 05:14:48;;;;;;;8.30;1.10;;;;;;;;;;6276597;22;20015;-70
2022/07/02 05:17:13;;;;;;;4.75;0.90;;;;;;;;;;6276524;22;19999;-70
2022/07/02 05:19:39;;;;;;;3.38;0.90;;;;;;;;;;6276106;22;20061;-71
2022/07/02 05:22:04;;;;;;;7.60;1.50;;;;;;;;;;6249672;22;20079;-71
2022/07/02 05:24:29;;;;;;;2.97;1.10;;;;;;;;;;6276639;22;20065;-71
2022/07/02 05:26:54;;;;;;;3.25;1.08;;;;;;;;;;6276696;22;20336;-70
2022/07/02 05:29:19;;;;;;;3.58;1.77;;;;;;;;;;6276627;22;20022;-70
2022/07/02 05:31:45;;;;;;;3.53;1.00;;;;;;;;;;6276668;22;20029;-70
2022/07/02 05:34:10;;;;;;;6.68;1.30;;;;;;;;;;6276747;22;20312;-71
2022/07/02 05:36:35;;;;;;;4.38;1.25;;;;;;;;;;6276701;22;20313;-71
2022/07/02 05:39:00;;;;;;;6.38;1.38;;;;;;;;;;6276595;22;20324;-70
2022/07/02 05:41:26;;;;;;;9.52;1.20;;;;;;;;;;6276823;22;20082;-71
2022/07/02 05:43:51;;;;;;;4.47;1.15;;;;;;;;;;6276253;22;20073;-70
2022/07/02 05:46:16;;;;;;;6.45;1.00;;;;;;;;;;6276696;22;20484;-70
2022/07/02 05:48:41;;;;;;;6.15;1.60;;;;;;;;;;6276744;22;20315;-71
2022/07/02 05:51:07;;;;;;;7.95;1.45;;;;;;;;;;6276729;22;20000;-70
2022/07/02 05:53:32;;;;;;;5.10;1.02;;;;;;;;;;6276486;22;19999;-71
2022/07/02 05:55:57;;;;;;;3.17;0.82;;;;;;;;;;6276550;22;20018;-71
2022/07/02 05:58:22;;;;;;;5.78;1.30;;;;;;;;;;6277078;22;20411;-71
2022/07/02 06:00:48;;;;;;;3.28;1.00;;;;;;;;;;6277898;22;20085;-71
2022/07/02 06:03:13;;;;;;;7.88;1.75;;;;;;;;;;6278173;22;20003;-70
2022/07/02 06:08:22;;;;;;;5.20;1.13;;;;;;;;;;6278165;22;20097;-70
2022/07/02 06:10:47;;;;;;;7.93;1.30;;;;;;;;;;6278344;22;20331;-70
2022/07/02 06:13:15;;;;;;;2.30;0.90;;;;;;;;;;6278353;22;20316;-71
2022/07/02 06:15:40;;;;;;;3.50;1.20;;;;;;;;;;6278488;22;19992;-70
2022/07/02 06:18:05;;;;;;;5.28;1.15;;;;;;;;;;6278330;22;20006;-71
2022/07/02 06:20:31;;;;;;;8.10;1.45;;;;;;;;;;6278262;22;20034;-70
2022/07/02 06:22:56;;;;;;;5.55;1.27;;;;;;;;;;6278124;22;20002;-70
2022/07/02 06:25:21;;;;;;;3.88;1.10;;;;;;;;;;6278354;22;20018;-70
2022/07/02 06:27:47;;;;;;;2.53;1.00;;;;;;;;;;6278214;22;20035;-70
2022/07/02 06:30:12;;;;;;;5.35;1.00;;;;;;;;;;6278722;22;19992;-70
2022/07/02 06:32:37;;;;;;;5.22;1.40;;;;;;;;;;6278146;22;20379;-71
2022/07/02 06:35:03;;;;;;;9.85;1.92;;;;;;;;;;6251083;22;20057;-70
2022/07/02 06:37:28;;;;;;;4.68;1.08;;;;;;;;;;6278110;22;19998;-70
2022/07/02 06:39:53;;;;;;;5.70;1.80;;;;;;;;;;6277767;22;20016;-71
2022/07/02 06:42:18;;;;;;;2.95;1.05;;;;;;;;;;6278164;22;20309;-70
2022/07/02 06:44:44;;;;;;;4.65;1.63;;;;;;;;;;6278188;22;20018;-70
2022/07/02 06:47:09;;;;;;;6.25;1.20;;;;;;;;;;6278044;22;20129;-70
2022/07/02 06:49:34;;;;;;;5.82;1.25;;;;;;;;;;6277562;22;20011;-70
2022/07/02 06:52:00;;;;;;;4.25;1.05;;;;;;;;;;6278070;22;19996;-70
2022/07/02 06:54:25;;;;;;;8.63;1.85;;;;;;;;;;6277984;22;20289;-70
2022/07/02 06:56:50;;;;;;;2.72;0.88;;;;;;;;;;6277855;22;20003;-70
2022/07/02 06:59:15;;;;;;;7.40;1.30;;;;;;;;;;6278049;22;20403;-70
2022/07/02 07:01:41;;;;;;;7.78;1.48;;;;;;;;;;6277870;22;20088;-70
2022/07/02 07:04:06;;;;;;;5.80;1.20;;;;;;;;;;6278105;22;20010;-70
2022/07/02 07:06:34;;;;;;;7.20;1.48;;;;;;;;;;6277584;22;20003;-70
2022/07/02 07:08:59;;;;;;;7.35;1.25;;;;;;;;;;6277666;22;19999;-71
2022/07/02 07:11:25;;;;;;;3.83;1.10;;;;;;;;;;6277353;22;20002;-71
2022/07/02 07:13:50;;;;;;;6.75;1.27;;;;;;;;;;6277292;22;19992;-71
2022/07/02 07:16:16;;;;;;;4.75;1.33;;;;;;;;;;6277865;22;20010;-71
2022/07/02 07:19:14;;;;;;;7.15;1.73;;;;;;;;;;6277678;22;20000;-71
2022/07/02 07:21:33;;;;;;;7.97;1.30;;;;;;;;;;6273392;22;20011;-71
2022/07/02 07:23:59;;;;;;;7.35;1.40;;;;;;;;;;6277275;22;20078;-72
2022/07/02 07:26:24;;;;;;;6.13;1.27;;;;;;;;;;6277588;22;19992;-71
2022/07/02 07:28:49;;;;;;;5.88;1.52;;;;;;;;;;6276916;22;19996;-71
2022/07/02 07:31:19;;;;;;;5.65;1.20;;;;;;;;;;6277409;22;20007;-71
2022/07/02 07:33:45;;;;;;;3.35;0.90;;;;;;;;;;6277657;22;20012;-72
2022/07/02 07:36:10;;;;;;;2.72;1.05;;;;;;;;;;6277999;22;19995;-71
2022/07/02 07:38:35;;;;;;;3.78;1.10;;;;;;;;;;6277577;22;20014;-71
2022/07/02 07:41:00;;;;;;;3.03;0.90;;;;;;;;;;6276761;22;20022;-71
2022/07/02 07:43:26;;;;;;;1.58;0.88;;;;;;;;;;6277534;22;20019;-71
2022/07/02 07:45:51;;;;;;;2.88;0.80;;;;;;;;;;6277531;22;20515;-71
2022/07/02 07:48:16;;;;;;;2.75;1.00;;;;;;;;;;6277538;22;20071;-71
2022/07/02 07:50:41;;;;;;;2.95;1.20;;;;;;;;;;6277584;22;20056;-72
2022/07/02 07:53:07;;;;;;;2.35;0.80;;;;;;;;;;6277339;22;20368;-71
2022/07/02 07:55:32;;;;;;;1.45;0.77;;;;;;;;;;6277644;22;20022;-71
2022/07/02 07:57:57;;;;;;;2.05;0.88;;;;;;;;;;6277575;22;20006;-71
2022/07/02 08:00:22;;;;;;;3.20;0.88;;;;;;;;;;6277410;22;20411;-71
2022/07/02 08:02:48;;;;;;;1.73;0.80;;;;;;;;;;6277354;22;20023;-71
2022/07/02 08:05:13;;;;;;;3.53;1.33;;;;;;;;;;6277439;22;19996;-72
2022/07/02 08:07:39;;;;;;;1.77;0.90;;;;;;;;;;6277159;22;20012;-71
2022/07/02 08:10:05;;;;;;;2.05;0.73;;;;;;;;;;6277355;22;20002;-71
2022/07/02 08:12:30;;;;;;;1.98;1.00;;;;;;;;;;6277214;22;19988;-71
2022/07/02 08:14:56;;;;;;;2.40;1.00;;;;;;;;;;6277234;22;20073;-71
2022/07/02 08:17:21;;;;;;;2.10;0.70;;;;;;;;;;6277199;22;20070;-71
2022/07/02 08:19:46;;;;;;;3.92;1.25;;;;;;;;;;6276695;22;19991;-71
2022/07/02 08:22:11;;;;;;;3.25;1.10;;;;;;;;;;6276849;22;20008;-71
2022/07/02 08:24:37;;;;;;;2.08;1.08;;;;;;;;;;6277052;22;19996;-71
2022/07/02 08:27:02;;;;;;;2.50;1.17;;;;;;;;;;6277124;22;20003;-71
2022/07/02 08:29:27;;;;;;;2.60;1.15;;;;;;;;;;6276711;22;20008;-71
2022/07/02 08:31:53;;;;;;;4.57;1.13;;;;;;;;;;6276608;22;20038;-71
2022/07/02 08:34:18;;;;;;;2.72;1.20;;;;;;;;;;6277096;22;19992;-72
2022/07/02 08:36:43;;;;;;;2.50;1.10;;;;;;;;;;6276818;22;20004;-72
2022/07/02 08:39:08;;;;;;;2.88;1.23;;;;;;;;;;6277039;22;19992;-71
2022/07/02 08:41:34;;;;;;;2.25;1.30;;;;;;;;;;6276318;22;20042;-71
2022/07/02 08:44:00;;;;;;;5.78;1.25;;;;;;;;;;6276586;22;20011;-71
2022/07/02 08:46:26;;;;;;;3.65;1.20;;;;;;;;;;6276972;22;20002;-71
2022/07/02 08:48:51;;;;;;;3.10;1.23;;;;;;;;;;6276925;22;20412;-71
2022/07/02 08:51:18;;;;;;;2.65;1.20;;;;;;;;;;6276367;22;19999;-71
2022/07/02 08:53:44;;;;;;;3.55;1.65;;;;;;;;;;6277252;22;19988;-71
2022/07/02 08:56:09;;;;;;;3.75;1.30;;;;;;;;;;6276874;22;20014;-71
2022/07/02 08:58:34;;;;;;;6.03;1.20;;;;;;;;;;6276800;22;20305;-72
2022/07/02 09:01:00;;;;;;;4.47;1.23;;;;;;;;;;6276709;22;20031;-71
2022/07/02 09:03:25;;;;;;;6.82;1.52;;;;;;;;;;6276835;22;20050;-72
2022/07/02 09:05:51;;;;;;;4.03;1.33;;;;;;;;;;6276561;22;20308;-72
2022/07/02 09:08:17;;;;;;;2.72;1.30;;;;;;;;;;6276990;22;20064;-71
2022/07/02 09:10:42;;;;;;;4.00;1.50;;;;;;;;;;6276736;22;20052;-72
2022/07/02 09:13:11;;;;;;;1.90;0.90;;;;;;;;;;6276847;22;20008;-71
2022/07/02 09:15:36;;;;;;;3.25;1.00;;;;;;;;;;6276468;22;20065;-71
2022/07/02 09:18:02;;;;;;;3.38;1.02;;;;;;;;;;6276867;22;20405;-71
2022/07/02 09:20:27;;;;;;;2.03;0.90;;;;;;;;;;6276566;22;20019;-71
2022/07/02 09:22:53;;;;;;;2.25;1.00;;;;;;;;;;6276633;22;20376;-71
2022/07/02 09:25:18;;;;;;;3.85;1.10;;;;;;;;;;6276752;22;20282;-71
2022/07/02 09:27:44;;;;;;;2.10;0.93;;;;;;;;;;6276362;22;20031;-71
2022/07/02 09:30:11;;;;;;;3.03;1.10;;;;;;;;;;6277005;22;19991;-71
2022/07/02 09:32:37;;;;;;;2.08;1.13;;;;;;;;;;6276711;22;20058;-71
2022/07/02 09:35:02;;;;;;;3.45;1.13;;;;;;;;;;6279079;22;20058;-71
2022/07/02 09:37:28;;;;;;;1.95;1.20;;;;;;;;;;6278700;22;19988;-71
2022/07/02 09:39:55;;;;;;;1.83;1.10;;;;;;;;;;6278542;22;20019;-70
2022/07/02 09:42:25;;;;;;;2.13;1.30;;;;;;;;;;6278720;22;20007;-70
2022/07/02 09:44:50;;;;;;;2.00;1.20;;;;;;;;;;6278587;22;19995;-72
2022/07/02 09:47:16;;;;;;;1.95;1.00;;;;;;;;;;6278723;22;20297;-71
2022/07/02 09:49:45;;;;;;;2.90;1.15;;;;;;;;;;6278665;22;20045;-71
2022/07/02 09:52:13;;;;;;;1.80;1.08;;;;;;;;;;6278743;22;19995;-72
2022/07/02 09:54:38;;;;;;;1.67;1.13;;;;;;;;;;6278447;22;19991;-72
2022/07/02 09:57:05;;;;;;;2.10;1.10;;;;;;;;;;6278600;22;20035;-72
2022/07/02 09:59:35;;;;;;;1.60;0.90;;;;;;;;;;6251506;22;20391;-72
2022/07/02 10:02:00;;;;;;;1.58;0.90;;;;;;;;;;6278133;22;20003;-72
2022/07/02 10:04:29;;;;;;;1.77;0.90;;;;;;;;;;6278397;22;20010;-72
2022/07/02 10:06:54;;;;;;;3.00;1.02;;;;;;;;;;6278079;22;20019;-72
2022/07/02 10:09:22;;;;;;;2.05;0.80;;;;;;;;;;6278548;22;19992;-72
2022/07/02 10:11:47;;;;;;;1.58;0.90;;;;;;;;;;6278235;22;20062;-72
2022/07/02 10:14:15;;;;;;;1.67;0.88;;;;;;;;;;6278483;22;19992;-72
2022/07/02 10:16:41;;;;;;;2.55;0.90;;;;;;;;;;6278279;22;20027;-72
2022/07/02 10:19:07;;;;;;;2.33;0.98;;;;;;;;;;6278333;22;20019;-72
2022/07/02 10:21:32;;;;;;;1.95;0.90;;;;;;;;;;6278178;22;20011;-72
2022/07/02 10:23:58;;;;;;;1.92;1.02;;;;;;;;;;6278204;22;19998;-72
2022/07/02 10:26:24;;;;;;;2.00;0.90;;;;;;;;;;6278307;22;20004;-72
2022/07/02 10:28:50;;;;;;;1.73;0.85;;;;;;;;;;6278136;22;20053;-72
2022/07/02 10:31:19;;;;;;;2.45;1.00;;;;;;;;;;6278297;22;19992;-72
2022/07/02 10:33:47;;;;;;;1.15;0.70;;;;;;;;;;6278229;22;20078;-72
2022/07/02 10:36:14;;;;;;;1.52;0.90;;;;;;;;;;6278171;22;20067;-72
2022/07/02 10:38:39;;;;;;;1.80;0.90;;;;;;;;;;6278147;22;20000;-72
2022/07/02 10:41:05;;;;;;;1.52;0.90;;;;;;;;;;6278099;22;20418;-72
2022/07/02 10:43:39;;;;;;;1.75;1.00;;;;;;;;;;6278250;22;20049;-72
2022/07/02 10:46:09;;;;;;;1.73;0.90;;;;;;;;;;6277608;22;20416;-72
2022/07/02 10:48:54;;;;;;;2.53;1.10;;;;;;;;;;6278163;22;20075;-72
2022/07/02 10:51:22;;;;;;;1.95;0.90;;;;;;;;;;6277341;22;20053;-72
2022/07/02 10:53:48;;;;;;;2.55;0.98;;;;;;;;;;6277959;22;20004;-72
2022/07/02 10:56:13;;;;;;;1.85;0.73;;;;;;;;;;6278134;22;20066;-72
2022/07/02 10:58:39;;;;;;;1.40;0.80;;;;;;;;;;6277869;22;20019;-72
2022/07/02 11:01:11;;;;;;;3.00;0.75;;;;;;;;;;6277676;22;20022;-72
2022/07/02 11:03:37;;;;;;;1.33;0.80;;;;;;;;;;6277981;22;20023;-72
2022/07/02 11:06:06;;;;;;;3.90;1.15;;;;;;;;;;6277826;22;20023;-72
2022/07/02 11:08:43;;;;;;;2.67;0.70;;;;;;;;;;6277941;22;20083;-72
2022/07/02 11:11:10;;;;;;;1.20;0.70;;;;;;;;;;6277816;22;20004;-72
2022/07/02 11:13:40;;;;;;;2.78;0.80;;;;;;;;;;6277528;22;20436;-72
2022/07/02 11:16:17;;;;;;;1.35;0.98;;;;;;;;;;6277740;22;20013;-72
2022/07/02 11:18:43;;;;;;;2.88;1.00;;;;;;;;;;6277973;22;20134;-72
2022/07/02 11:21:11;;;;;;;2.00;0.82;;;;;;;;;;6277781;22;20130;-72
2022/07/02 11:23:36;;;;;;;3.28;1.00;;;;;;;;;;6277753;22;19996;-72
2022/07/02 11:26:03;;;;;;;2.25;1.00;;;;;;;;;;6277643;22;20125;-72
2022/07/02 11:28:28;;;;;;;3.10;1.00;;;;;;;;;;6277852;22;20028;-72
2022/07/02 11:30:56;;;;;;;1.95;0.93;;;;;;;;;;6277697;22;19999;-72
2022/07/02 11:33:21;;;;;;;3.40;1.13;;;;;;;;;;6277474;22;20003;-72
2022/07/02 11:35:51;;;;;;;5.63;2.35;;;;;;;;;;6277770;22;20004;-72
2022/07/02 11:38:17;;;;;;;3.60;1.23;;;;;;;;;;6276994;22;20053;-72
2022/07/02 11:40:42;;;;;;;3.25;1.33;;;;;;;;;;6276695;22;20382;-72
2022/07/02 11:43:14;;;;;;;2.33;1.30;;;;;;;;;;6277071;22;20023;-72
2022/07/02 11:45:41;;;;;;;3.55;1.20;;;;;;;;;;6277124;22;20390;-72
2022/07/02 11:48:06;;;;;;;6.32;1.42;;;;;;;;;;6277363;22;19996;-72
2022/07/02 11:50:32;;;;;;;5.45;1.50;;;;;;;;;;6266995;22;20004;-72
2022/07/02 11:52:59;;;;;;;3.92;1.50;;;;;;;;;;6264105;22;20054;-72
2022/07/02 11:55:24;;;;;;;4.10;1.77;;;;;;;;;;6273633;22;20336;-72
2022/07/02 11:57:50;;;;;;;3.28;1.80;;;;;;;;;;6277060;22;20000;-72
2022/07/02 12:00:17;;;;;;;2.35;1.20;;;;;;;;;;6276503;22;20004;-72
2022/07/02 12:02:43;;;;;;;2.80;1.35;;;;;;;;;;6276225;22;20454;-72
2022/07/02 12:05:18;;;;;;;1.85;1.05;;;;;;;;;;6276936;22;20086;-72
2022/07/02 12:07:43;;;;;;;1.77;0.80;;;;;;;;;;6277143;22;20003;-72
2022/07/02 12:10:10;;;;;;;3.95;1.20;;;;;;;;;;6276431;22;20042;-72
2022/07/02 12:12:35;;;;;;;3.08;0.90;;;;;;;;;;6275909;22;20408;-72
2022/07/02 12:15:01;;;;;;;1.95;0.90;;;;;;;;;;6277068;22;19999;-72
2022/07/02 12:17:28;;;;;;;2.42;1.05;;;;;;;;;;6276543;22;20454;-72
2022/07/02 12:19:53;;;;;;;1.95;1.02;;;;;;;;;;6276377;22;20474;-72
2022/07/02 12:22:25;;;;;;;1.65;0.90;;;;;;;;;;6274608;22;20008;-72
2022/07/02 12:24:51;;;;;;;1.80;0.90;;;;;;;;;;6247251;22;20364;-72
2022/07/02 12:27:17;;;;;;;1.85;1.00;;;;;;;;;;6274445;22;19999;-72
2022/07/02 12:29:56;;;;;;;2.90;1.05;;;;;;;;;;6274266;22;20008;-72
2022/07/02 12:32:28;;;;;;;2.88;0.90;;;;;;;;;;6274570;22;20113;-72
2022/07/02 12:34:53;;;;;;;2.53;0.90;;;;;;;;;;6274641;22;20053;-72
2022/07/02 12:37:21;;;;;;;3.13;0.90;;;;;;;;;;6275729;22;20086;-72
2022/07/02 12:39:46;;;;;;;3.60;0.98;;;;;;;;;;6276434;22;20294;-72
2022/07/02 12:42:13;;;;;;;2.75;0.90;;;;;;;;;;6261662;22;20003;-72
2022/07/02 12:44:49;;;;;;;2.53;0.98;;;;;;;;;;6273602;22;20022;-72
2022/07/02 12:47:21;;;;;;;4.25;1.00;;;;;;;;;;6269250;22;20099;-72
2022/07/02 12:49:51;;;;;;;4.07;1.80;;;;;;;;;;6273750;22;20316;-72
2022/07/02 12:52:16;;;;;;;6.47;1.83;;;;;;;;;;6273413;22;20000;-72
2022/07/02 12:54:42;;;;;;;4.65;1.10;;;;;;;;;;6273176;22;20423;-72
2022/07/02 12:57:20;;;;;;;3.50;0.93;;;;;;;;;;6273267;22;20389;-73
2022/07/02 12:59:46;;;;;;;3.85;1.30;;;;;;;;;;6272940;22;20061;-72
2022/07/02 13:02:21;;;;;;;2.70;0.80;;;;;;;;;;6265395;22;20011;-73
2022/07/02 13:04:47;;;;;;;3.45;0.90;;;;;;;;;;6271622;22;20069;-72
2022/07/02 13:07:14;;;;;;;2.35;0.90;;;;;;;;;;6273708;22;20007;-72
2022/07/02 13:09:39;;;;;;;1.80;0.90;;;;;;;;;;6273130;22;20000;-72
2022/07/02 13:12:05;;;;;;;3.30;1.30;;;;;;;;;;6273004;22;20371;-72
2022/07/02 13:14:30;;;;;;;2.95;1.10;;;;;;;;;;6271980;22;20007;-72
2022/07/02 13:16:55;;;;;;;3.25;1.13;;;;;;;;;;6272225;22;19996;-72
2022/07/02 13:19:20;;;;;;;1.88;1.00;;;;;;;;;;6274725;22;20600;-73
2022/07/02 13:21:46;;;;;;;3.17;0.98;;;;;;;;;;6273280;22;20018;-72
2022/07/02 13:24:11;;;;;;;3.55;1.10;;;;;;;;;;6273016;22;19996;-72
2022/07/02 13:26:36;;;;;;;3.60;0.93;;;;;;;;;;6270888;22;20011;-72
2022/07/02 13:29:02;;;;;;;2.78;0.80;;;;;;;;;;6271962;22;20018;-72
2022/07/02 13:31:27;;;;;;;1.17;0.65;;;;;;;;;;6271711;22;20027;-72
2022/07/02 13:33:53;;;;;;;5.55;0.93;;;;;;;;;;6272447;22;20003;-72
2022/07/02 13:36:18;;;;;;;3.97;1.17;;;;;;;;;;6274159;22;20323;-72
2022/07/02 13:38:43;;;;;;;1.67;0.70;;;;;;;;;;6274580;22;20033;-72
2022/07/02 13:41:08;;;;;;;5.20;0.90;;;;;;;;;;6275802;22;20081;-72
2022/07/02 13:43:34;;;;;;;2.55;0.90;;;;;;;;;;6276684;22;20003;-72
2022/07/02 13:45:59;;;;;;;2.55;0.70;;;;;;;;;;6276048;22;19992;-72
2022/07/02 13:48:24;;;;;;;2.67;0.80;;;;;;;;;;6276233;22;20007;-72
2022/07/02 13:50:49;;;;;;;2.45;0.85;;;;;;;;;;6276039;22;20003;-72
2022/07/02 13:53:15;;;;;;;2.80;0.80;;;;;;;;;;6275863;22;20309;-72
2022/07/02 13:55:40;;;;;;;1.92;0.75;;;;;;;;;;6276809;22;19996;-72
2022/07/02 13:58:05;;;;;;;3.28;0.88;;;;;;;;;;6276458;22;20023;-72
2022/07/02 14:00:30;;;;;;;3.45;0.73;;;;;;;;;;6276232;22;20004;-72
2022/07/02 14:02:56;;;;;;;3.42;0.73;;;;;;;;;;6276214;22;20031;-72
2022/07/02 14:05:21;;;;;;;2.35;0.80;;;;;;;;;;6276325;22;20114;-72
2022/07/02 14:07:46;;;;;;;1.58;0.82;;;;;;;;;;6276527;22;19996;-72
2022/07/02 14:10:11;;;;;;;2.20;0.60;;;;;;;;;;6276228;22;20053;-71
2022/07/02 14:12:37;;;;;;;1.60;0.70;;;;;;;;;;6276331;22;20324;-72
2022/07/02 14:15:02;;;;;;;2.13;0.82;;;;;;;;;;6276428;22;20003;-72
2022/07/02 14:17:27;;;;;;;3.17;0.70;;;;;;;;;;6267688;22;20004;-72
2022/07/02 14:19:53;;;;;;;4.93;0.70;;;;;;;;;;6276084;22;20069;-72
2022/07/02 14:22:19;;;;;;;2.35;0.55;;;;;;;;;;6273815;22;20000;-72
2022/07/02 14:24:45;;;;;;;2.38;0.70;;;;;;;;;;6277739;22;20014;-72
2022/07/02 14:27:10;;;;;;;2.45;0.50;;;;;;;;;;6277682;22;20008;-72
2022/07/02 14:29:35;;;;;;;4.15;0.82;;;;;;;;;;6277505;22;20002;-72
2022/07/02 14:32:00;;;;;;;1.58;0.70;;;;;;;;;;6276732;22;20003;-72
2022/07/02 14:34:26;;;;;;;3.10;0.80;;;;;;;;;;6274148;22;20364;-72
2022/07/02 14:36:51;;;;;;;3.55;0.82;;;;;;;;;;6278001;22;19992;-72
2022/07/02 14:39:16;;;;;;;2.08;1.00;;;;;;;;;;6277819;22;20000;-72
2022/07/02 14:41:42;;;;;;;2.75;0.80;;;;;;;;;;6276753;22;20038;-72